TimeEDT,TemperatureF,Dew PointF,Humidity,Sea Level PressureIn,VisibilityMPH,Wind Direction,Wind SpeedMPH,Gust SpeedMPH,PrecipitationIn,Events,Conditions,WindDirDegrees,DateUTC
12:28 AM,46.4,44.6,93,29.96,7.0,NNW,10.4,-,0.04,Rain,Light Rain,340,2013-04-16 04:28:00
12:49 AM,46.4,44.6,93,29.95,7.0,North,10.4,-,0.09,Rain,Light Rain,350,2013-04-16 04:49:00
12:54 AM,46.0,44.1,93,29.96,5.0,North,9.2,-,0.10,Rain,Rain,350,2013-04-16 04:54:00
1:54 AM,46.0,44.1,93,29.98,5.0,NNW,5.8,-,0.08,Rain,Rain,340,2013-04-16 05:54:00
2:21 AM,46.4,44.6,93,29.97,10.0,North,3.5,-,0.03,Rain,Light Rain,350,2013-04-16 06:21:00
2:52 AM,46.4,44.6,93,29.96,10.0,North,6.9,-,0.03,,Overcast,360,2013-04-16 06:52:00
2:54 AM,46.0,43.0,89,29.96,10.0,North,5.8,-,0.03,,Overcast,360,2013-04-16 06:54:00
3:32 AM,46.4,42.8,87,29.95,10.0,North,6.9,-,N/A,,Overcast,360,2013-04-16 07:32:00
3:54 AM,46.0,43.0,89,29.98,8.0,NW,8.1,-,0.00,Rain,Rain,320,2013-04-16 07:54:00
4:38 AM,44.6,42.8,93,29.97,6.0,NNW,6.9,-,0.17,Rain,Rain,330,2013-04-16 08:38:00
4:54 AM,44.1,42.1,93,29.98,7.0,NNW,3.5,-,0.18,Rain,Rain,340,2013-04-16 08:54:00
5:16 AM,44.6,42.8,93,29.99,8.0,NW,8.1,-,0.02,Rain,Light Rain,320,2013-04-16 09:16:00
5:33 AM,44.6,41.0,87,29.98,7.0,NNW,6.9,-,0.03,Rain,Light Rain,340,2013-04-16 09:33:00
5:54 AM,43.0,41.0,93,30.02,10.0,NW,12.7,-,0.04,Rain,Light Rain,320,2013-04-16 09:54:00
6:21 AM,42.8,39.2,87,30.02,10.0,NNW,6.9,-,0.00,Rain,Light Rain,340,2013-04-16 10:21:00
6:54 AM,42.1,39.0,89,30.04,10.0,NNW,8.1,-,0.00,,Overcast,330,2013-04-16 10:54:00
7:13 AM,42.8,39.2,87,30.05,10.0,NW,6.9,-,N/A,,Overcast,320,2013-04-16 11:13:00
7:54 AM,42.8,39.2,87,30.06,10.0,NNW,9.2,-,N/A,,Overcast,330,2013-04-16 11:54:00
8:54 AM,43.0,39.0,86,30.10,10.0,NNW,5.8,-,N/A,,Overcast,330,2013-04-16 12:54:00
9:54 AM,44.1,39.0,82,30.12,10.0,WNW,4.6,-,N/A,,Overcast,300,2013-04-16 13:54:00
10:18 AM,44.6,39.2,81,30.12,10.0,NW,6.9,-,N/A,,Overcast,320,2013-04-16 14:18:00
10:38 AM,46.4,39.2,76,30.12,10.0,WNW,4.6,-,N/A,,Overcast,300,2013-04-16 14:38:00
10:54 AM,46.9,39.9,77,30.14,10.0,NW,5.8,-,N/A,,Mostly Cloudy,320,2013-04-16 14:54:00
11:33 AM,48.2,39.2,71,30.13,10.0,NNW,10.4,-,N/A,,Mostly Cloudy,330,2013-04-16 15:33:00
11:54 AM,48.0,39.0,71,30.13,10.0,North,11.5,-,N/A,,Mostly Cloudy,360,2013-04-16 15:54:00
12:02 PM,50.0,39.2,66,30.12,10.0,NNW,9.2,-,N/A,,Scattered Clouds,340,2013-04-16 16:02:00
12:54 PM,50.0,36.0,59,30.16,10.0,NNW,9.2,-,N/A,,Clear,330,2013-04-16 16:54:00
1:54 PM,51.1,37.0,59,30.19,10.0,WNW,9.2,-,N/A,,Clear,290,2013-04-16 17:54:00
2:54 PM,50.0,35.1,57,30.19,10.0,NW,9.2,-,N/A,,Scattered Clouds,320,2013-04-16 18:54:00
3:54 PM,48.9,33.1,54,30.19,10.0,NNW,5.8,-,N/A,,Mostly Cloudy,340,2013-04-16 19:54:00
4:54 PM,50.0,30.9,48,30.19,10.0,NNW,8.1,-,0.00,,Overcast,340,2013-04-16 20:54:00
5:54 PM,46.9,34.0,61,30.22,10.0,NNW,6.9,-,0.01,Rain,Light Rain,330,2013-04-16 21:54:00
6:54 PM,48.0,30.9,52,30.22,10.0,North,6.9,-,0.00,,Partly Cloudy,10,2013-04-16 22:54:00
7:54 PM,46.9,32.0,56,30.24,10.0,North,10.4,-,N/A,,Overcast,360,2013-04-16 23:54:00
8:54 PM,46.0,32.0,58,30.24,10.0,North,8.1,-,0.00,,Overcast,10,2013-04-17 00:54:00
9:54 PM,43.0,33.1,68,30.25,10.0,North,9.2,-,0.00,,Mostly Cloudy,10,2013-04-17 01:54:00
10:54 PM,44.1,33.1,65,30.26,10.0,North,4.6,-,N/A,,Overcast,350,2013-04-17 02:54:00
11:54 PM,43.0,32.0,65,30.25,10.0,NNE,6.9,-,N/A,,Overcast,30,2013-04-17 03:54:00